sensor_id;sensor_type;location;lat;lon;timestamp;pressure;altitude;pressure_sealevel;temperature;humidity
6433;BME280;3249;42.690;23.260;2022-11-09T00:02:14;94979.16;;;9.25;100.00
6433;BME280;3249;42.690;23.260;2022-11-09T00:04:39;94965.75;;;9.30;100.00
6433;BME280;3249;42.690;23.260;2022-11-09T00:07:05;94975.78;;;9.31;100.00
6433;BME280;3249;42.690;23.260;2022-11-09T00:09:30;94971.88;;;9.35;100.00
6433;BME280;3249;42.690;23.260;2022-11-09T00:11:56;94965.94;;;9.35;100.00
6433;BME280;3249;42.690;23.260;2022-11-09T00:14:21;94957.03;;;9.31;100.00
6433;BME280;3249;42.690;23.260;2022-11-09T00:16:47;94974.66;;;9.34;100.00
6433;BME280;3249;42.690;23.260;2022-11-09T00:19:12;94981.56;;;9.40;100.00
6433;BME280;3249;42.690;23.260;2022-11-09T00:21:38;94975.63;;;9.39;100.00
6433;BME280;3249;42.690;23.260;2022-11-09T00:24:04;94971.69;;;9.43;100.00
6433;BME280;3249;42.690;23.260;2022-11-09T00:26:29;94986.38;;;9.56;100.00
6433;BME280;3249;42.690;23.260;2022-11-09T00:28:55;94977.81;;;9.42;100.00
6433;BME280;3249;42.690;23.260;2022-11-09T00:31:22;94978.09;;;9.13;100.00
6433;BME280;3249;42.690;23.260;2022-11-09T00:33:49;94972.78;;;9.15;100.00
6433;BME280;3249;42.690;23.260;2022-11-09T00:36:15;94971.88;;;9.35;100.00
6433;BME280;3249;42.690;23.260;2022-11-09T00:38:41;94953.28;;;9.27;100.00
6433;BME280;3249;42.690;23.260;2022-11-09T00:41:08;94980.84;;;9.52;100.00
6433;BME280;3249;42.690;23.260;2022-11-09T00:43:34;94978.38;;;9.31;100.00
6433;BME280;3249;42.690;23.260;2022-11-09T00:46:00;94973.31;;;9.44;100.00
6433;BME280;3249;42.690;23.260;2022-11-09T00:48:25;94965.44;;;9.52;100.00
6433;BME280;3249;42.690;23.260;2022-11-09T00:50:52;94974.72;;;9.53;100.00
6433;BME280;3249;42.690;23.260;2022-11-09T00:53:19;94977.31;;;9.67;100.00
6433;BME280;3249;42.690;23.260;2022-11-09T00:55:58;94975.63;;;9.39;100.00
6433;BME280;3249;42.690;23.260;2022-11-09T00:58:25;94977.44;;;9.45;100.00
6433;BME280;3249;42.690;23.260;2022-11-09T01:00:52;94977.31;;;9.60;100.00
6433;BME280;3249;42.690;23.260;2022-11-09T01:03:18;94964.22;;;9.48;100.00
6433;BME280;3249;42.690;23.260;2022-11-09T01:05:44;94958.84;;;9.43;100.00
6433;BME280;3249;42.690;23.260;2022-11-09T01:08:09;94968.84;;;9.19;100.00
6433;BME280;3249;42.690;23.260;2022-11-09T01:10:35;94950.47;;;9.22;100.00
6433;BME280;3249;42.690;23.260;2022-11-09T01:13:03;94973.06;;;9.39;100.00
6433;BME280;3249;42.690;23.260;2022-11-09T01:15:29;94973.06;;;9.39;100.00
6433;BME280;3249;42.690;23.260;2022-11-09T01:17:54;94952.84;;;9.23;100.00
6433;BME280;3249;42.690;23.260;2022-11-09T01:20:19;94958.63;;;9.38;100.00
6433;BME280;3249;42.690;23.260;2022-11-09T01:22:45;94971.31;;;9.46;100.00
6433;BME280;3249;42.690;23.260;2022-11-09T01:25:10;94965.22;;;9.07;100.00
6433;BME280;3249;42.690;23.260;2022-11-09T01:27:36;94966.97;;;9.40;100.00
6433;BME280;3249;42.690;23.260;2022-11-09T01:30:01;94967.53;;;9.42;100.00
6433;BME280;3249;42.690;23.260;2022-11-09T01:32:30;94968.66;;;9.20;100.00
6433;BME280;3249;42.690;23.260;2022-11-09T01:34:56;94934.94;;;8.96;100.00
6433;BME280;3249;42.690;23.260;2022-11-09T01:37:21;94954.53;;;9.03;100.00
6433;BME280;3249;42.690;23.260;2022-11-09T01:39:46;94953.75;;;9.03;100.00
6433;BME280;3249;42.690;23.260;2022-11-09T01:42:13;94958.59;;;9.25;100.00
6433;BME280;3249;42.690;23.260;2022-11-09T01:44:39;94946.81;;;9.03;100.00
6433;BME280;3249;42.690;23.260;2022-11-09T01:47:09;94951.69;;;9.26;100.00
6433;BME280;3249;42.690;23.260;2022-11-09T01:49:47;94954.88;;;9.34;100.00
6433;BME280;3249;42.690;23.260;2022-11-09T01:52:29;94948.97;;;9.00;100.00
6433;BME280;3249;42.690;23.260;2022-11-09T01:55:01;94923.69;;;9.03;100.00
6433;BME280;3249;42.690;23.260;2022-11-09T01:57:31;94954.34;;;9.05;100.00
6433;BME280;3249;42.690;23.260;2022-11-09T02:00:08;94952.25;;;9.21;100.00
6433;BME280;3249;42.690;23.260;2022-11-09T02:02:36;94957.19;;;9.23;100.00
6433;BME280;3249;42.690;23.260;2022-11-09T02:05:06;94952.25;;;9.21;100.00
6433;BME280;3249;42.690;23.260;2022-11-09T02:07:34;94966.94;;;9.34;100.00
6433;BME280;3249;42.690;23.260;2022-11-09T02:10:04;94967.94;;;8.99;100.00
6433;BME280;3249;42.690;23.260;2022-11-09T02:12:33;94964.31;;;8.87;100.00
6433;BME280;3249;42.690;23.260;2022-11-09T02:15:01;94953.59;;;8.77;100.00
6433;BME280;3249;42.690;23.260;2022-11-09T02:17:28;94961.06;;;8.72;100.00
6433;BME280;3249;42.690;23.260;2022-11-09T02:19:56;94966.09;;;8.86;100.00
6433;BME280;3249;42.690;23.260;2022-11-09T02:22:22;94965.91;;;8.88;100.00
6433;BME280;3249;42.690;23.260;2022-11-09T02:24:48;94963.38;;;8.94;100.00
6433;BME280;3249;42.690;23.260;2022-11-09T02:27:13;94960.44;;;8.97;100.00
6433;BME280;3249;42.690;23.260;2022-11-09T02:29:43;94960.72;;;8.81;100.00
6433;BME280;3249;42.690;23.260;2022-11-09T02:32:13;94964.50;;;8.85;100.00
6433;BME280;3249;42.690;23.260;2022-11-09T02:34:41;94956.13;;;8.43;100.00
6433;BME280;3249;42.690;23.260;2022-11-09T02:37:06;94965.44;;;8.50;100.00
6433;BME280;3249;42.690;23.260;2022-11-09T02:39:32;94963.72;;;8.57;100.00
6433;BME280;3249;42.690;23.260;2022-11-09T02:42:05;94955.31;;;8.42;100.00
6433;BME280;3249;42.690;23.260;2022-11-09T02:44:33;94960.19;;;8.16;100.00
6433;BME280;3249;42.690;23.260;2022-11-09T02:47:00;94946.91;;;8.27;100.00
6433;BME280;3249;42.690;23.260;2022-11-09T02:49:26;94964.22;;;8.46;100.00
6433;BME280;3249;42.690;23.260;2022-11-09T02:51:51;94964.53;;;8.37;100.00
6433;BME280;3249;42.690;23.260;2022-11-09T02:54:17;94951.69;;;8.30;100.00
6433;BME280;3249;42.690;23.260;2022-11-09T02:56:42;94960.13;;;8.10;100.00
6433;BME280;3249;42.690;23.260;2022-11-09T02:59:08;94942.63;;;7.71;100.00
6433;BME280;3249;42.690;23.260;2022-11-09T03:01:33;94954.59;;;7.85;100.00
6433;BME280;3249;42.690;23.260;2022-11-09T03:03:58;94949.72;;;7.90;100.00
6433;BME280;3249;42.690;23.260;2022-11-09T03:06:24;94937.50;;;7.92;100.00
6433;BME280;3249;42.690;23.260;2022-11-09T03:09:03;94956.53;;;8.04;100.00
6433;BME280;3249;42.690;23.260;2022-11-09T03:11:29;94940.41;;;7.68;100.00
6433;BME280;3249;42.690;23.260;2022-11-09T03:13:54;94960.16;;;7.89;100.00
6433;BME280;3249;42.690;23.260;2022-11-09T03:16:19;94941.78;;;7.85;100.00
6433;BME280;3249;42.690;23.260;2022-11-09T03:18:45;94958.34;;;7.83;100.00
6433;BME280;3249;42.690;23.260;2022-11-09T03:21:10;94965.56;;;7.58;100.00
6433;BME280;3249;42.690;23.260;2022-11-09T03:23:35;94964.91;;;7.71;100.00
6433;BME280;3249;42.690;23.260;2022-11-09T03:26:01;94922.81;;;7.23;100.00
6433;BME280;3249;42.690;23.260;2022-11-09T03:28:27;94940.28;;;7.55;100.00
6433;BME280;3249;42.690;23.260;2022-11-09T03:30:52;94961.91;;;7.67;100.00
6433;BME280;3249;42.690;23.260;2022-11-09T03:33:18;94960.28;;;7.81;100.00
6433;BME280;3249;42.690;23.260;2022-11-09T03:35:43;94969.28;;;7.98;100.00
6433;BME280;3249;42.690;23.260;2022-11-09T03:38:09;94971.69;;;7.78;100.00
6433;BME280;3249;42.690;23.260;2022-11-09T03:40:34;94973.91;;;7.31;100.00
6433;BME280;3249;42.690;23.260;2022-11-09T03:43:00;94969.97;;;7.50;100.00
6433;BME280;3249;42.690;23.260;2022-11-09T03:45:25;94980.69;;;7.53;100.00
6433;BME280;3249;42.690;23.260;2022-11-09T03:47:52;94979.84;;;7.32;100.00
6433;BME280;3249;42.690;23.260;2022-11-09T03:50:21;94976.81;;;7.28;100.00
6433;BME280;3249;42.690;23.260;2022-11-09T03:52:46;94970.16;;;7.48;100.00
6433;BME280;3249;42.690;23.260;2022-11-09T03:55:13;94979.56;;;7.12;100.00
6433;BME280;3249;42.690;23.260;2022-11-09T03:57:39;94973.03;;;7.24;100.00
6433;BME280;3249;42.690;23.260;2022-11-09T04:00:06;94978.94;;;7.39;100.00
6433;BME280;3249;42.690;23.260;2022-11-09T04:02:31;94962.53;;;7.19;100.00
6433;BME280;3249;42.690;23.260;2022-11-09T04:04:57;94970.91;;;7.28;100.00
6433;BME280;3249;42.690;23.260;2022-11-09T04:07:22;94964.75;;;7.22;100.00
6433;BME280;3249;42.690;23.260;2022-11-09T04:09:48;94960.06;;;7.26;100.00
6433;BME280;3249;42.690;23.260;2022-11-09T04:12:13;94978.50;;;7.36;100.00
6433;BME280;3249;42.690;23.260;2022-11-09T04:14:38;94968.78;;;7.31;100.00
6433;BME280;3249;42.690;23.260;2022-11-09T04:17:04;94986.25;;;7.42;100.00
6433;BME280;3249;42.690;23.260;2022-11-09T04:19:30;94962.44;;;7.27;100.00
6433;BME280;3249;42.690;23.260;2022-11-09T04:21:56;94984.84;;;7.40;100.00
6433;BME280;3249;42.690;23.260;2022-11-09T04:24:21;94982.63;;;7.37;100.00
6433;BME280;3249;42.690;23.260;2022-11-09T04:26:46;94970.00;;;7.35;100.00
6433;BME280;3249;42.690;23.260;2022-11-09T04:29:12;94981.78;;;7.15;100.00
6433;BME280;3249;42.690;23.260;2022-11-09T04:31:38;94966.78;;;7.12;100.00
6433;BME280;3249;42.690;23.260;2022-11-09T04:34:03;94984.50;;;7.28;100.00
6433;BME280;3249;42.690;23.260;2022-11-09T04:36:28;94980.19;;;7.29;100.00
6433;BME280;3249;42.690;23.260;2022-11-09T04:38:54;94975.22;;;7.27;100.00
6433;BME280;3249;42.690;23.260;2022-11-09T04:41:19;94983.81;;;7.34;100.00
6433;BME280;3249;42.690;23.260;2022-11-09T04:43:45;94981.00;;;7.29;100.00
6433;BME280;3249;42.690;23.260;2022-11-09T04:46:10;94972.69;;;7.27;100.00
6433;BME280;3249;42.690;23.260;2022-11-09T04:48:35;94979.75;;;7.25;100.00
6433;BME280;3249;42.690;23.260;2022-11-09T04:51:03;94986.19;;;7.36;100.00
6433;BME280;3249;42.690;23.260;2022-11-09T04:53:29;94989.28;;;7.31;100.00
6433;BME280;3249;42.690;23.260;2022-11-09T04:55:55;94988.81;;;7.42;100.00
6433;BME280;3249;42.690;23.260;2022-11-09T04:58:21;94987.41;;;7.40;100.00
6433;BME280;3249;42.690;23.260;2022-11-09T05:00:46;94966.03;;;7.33;100.00
6433;BME280;3249;42.690;23.260;2022-11-09T05:03:11;94981.41;;;7.33;100.00
6433;BME280;3249;42.690;23.260;2022-11-09T05:05:37;94993.31;;;7.40;100.00
6433;BME280;3249;42.690;23.260;2022-11-09T05:08:04;94990.69;;;7.19;100.00
6433;BME280;3249;42.690;23.260;2022-11-09T05:10:30;94989.19;;;7.25;100.00
6433;BME280;3249;42.690;23.260;2022-11-09T05:13:04;94987.34;;;7.33;100.00
6433;BME280;3249;42.690;23.260;2022-11-09T05:15:30;94983.53;;;7.15;100.00
6433;BME280;3249;42.690;23.260;2022-11-09T05:17:56;94994.50;;;7.23;100.00
6433;BME280;3249;42.690;23.260;2022-11-09T05:20:22;94979.38;;;7.28;100.00
6433;BME280;3249;42.690;23.260;2022-11-09T05:22:48;94980.19;;;7.14;100.00
6433;BME280;3249;42.690;23.260;2022-11-09T05:25:32;94996.44;;;6.92;100.00
6433;BME280;3249;42.690;23.260;2022-11-09T05:27:58;95009.59;;;7.18;100.00
6433;BME280;3249;42.690;23.260;2022-11-09T05:30:23;94994.81;;;7.35;100.00
6433;BME280;3249;42.690;23.260;2022-11-09T05:32:49;94993.31;;;7.40;100.00
6433;BME280;3249;42.690;23.260;2022-11-09T05:35:14;95003.53;;;7.55;100.00
6433;BME280;3249;42.690;23.260;2022-11-09T05:37:40;95004.41;;;7.62;100.00
6433;BME280;3249;42.690;23.260;2022-11-09T05:40:07;95017.81;;;7.78;100.00
6433;BME280;3249;42.690;23.260;2022-11-09T05:42:33;95013.28;;;7.80;100.00
6433;BME280;3249;42.690;23.260;2022-11-09T05:44:59;95014.22;;;7.94;100.00
6433;BME280;3249;42.690;23.260;2022-11-09T05:47:25;95008.56;;;7.98;100.00
6433;BME280;3249;42.690;23.260;2022-11-09T05:49:50;95009.91;;;8.15;100.00
6433;BME280;3249;42.690;23.260;2022-11-09T05:52:16;94995.78;;;8.05;100.00
6433;BME280;3249;42.690;23.260;2022-11-09T05:54:41;95022.97;;;8.20;100.00
6433;BME280;3249;42.690;23.260;2022-11-09T05:57:07;95026.50;;;8.19;100.00
6433;BME280;3249;42.690;23.260;2022-11-09T05:59:32;95039.59;;;8.24;100.00
6433;BME280;3249;42.690;23.260;2022-11-09T06:01:57;95028.38;;;8.25;100.00
6433;BME280;3249;42.690;23.260;2022-11-09T06:04:23;95037.13;;;8.31;100.00
6433;BME280;3249;42.690;23.260;2022-11-09T06:06:48;95035.00;;;8.20;100.00
6433;BME280;3249;42.690;23.260;2022-11-09T06:09:14;95017.59;;;8.15;100.00
6433;BME280;3249;42.690;23.260;2022-11-09T06:11:39;95046.56;;;8.51;100.00
6433;BME280;3249;42.690;23.260;2022-11-09T06:14:05;95039.59;;;8.66;100.00
6433;BME280;3249;42.690;23.260;2022-11-09T06:16:30;95037.50;;;8.55;100.00
6433;BME280;3249;42.690;23.260;2022-11-09T06:18:56;95043.47;;;8.83;100.00
6433;BME280;3249;42.690;23.260;2022-11-09T06:21:21;95042.59;;;8.97;100.00
6433;BME280;3249;42.690;23.260;2022-11-09T06:23:46;95055.38;;;9.18;100.00
6433;BME280;3249;42.690;23.260;2022-11-09T06:26:12;95042.53;;;9.18;100.00
6433;BME280;3249;42.690;23.260;2022-11-09T06:28:39;95058.66;;;9.40;100.00
6433;BME280;3249;42.690;23.260;2022-11-09T06:31:07;95054.34;;;9.47;100.00
6433;BME280;3249;42.690;23.260;2022-11-09T06:33:34;95034.97;;;9.10;100.00
6433;BME280;3249;42.690;23.260;2022-11-09T06:36:00;95045.38;;;9.02;100.00
6433;BME280;3249;42.690;23.260;2022-11-09T06:38:26;95057.22;;;9.03;100.00
6433;BME280;3249;42.690;23.260;2022-11-09T06:40:53;95059.00;;;9.30;100.00
6433;BME280;3249;42.690;23.260;2022-11-09T06:43:19;95052.16;;;9.44;100.00
6433;BME280;3249;42.690;23.260;2022-11-09T06:45:45;95061.72;;;9.57;100.00
6433;BME280;3249;42.690;23.260;2022-11-09T06:48:11;95056.22;;;9.66;100.00
6433;BME280;3249;42.690;23.260;2022-11-09T06:50:36;95033.09;;;9.66;100.00
6433;BME280;3249;42.690;23.260;2022-11-09T06:53:04;95057.53;;;9.96;100.00
6433;BME280;3249;42.690;23.260;2022-11-09T06:55:31;95059.50;;;9.88;100.00
6433;BME280;3249;42.690;23.260;2022-11-09T06:57:57;95054.44;;;10.14;100.00
6433;BME280;3249;42.690;23.260;2022-11-09T07:00:23;95064.00;;;10.33;100.00
6433;BME280;3249;42.690;23.260;2022-11-09T07:02:52;95046.75;;;10.27;100.00
6433;BME280;3249;42.690;23.260;2022-11-09T07:05:18;95053.69;;;10.26;100.00
6433;BME280;3249;42.690;23.260;2022-11-09T07:07:44;95061.41;;;10.20;100.00
6433;BME280;3249;42.690;23.260;2022-11-09T07:10:10;95059.47;;;10.48;100.00
6433;BME280;3249;42.690;23.260;2022-11-09T07:12:35;95035.31;;;10.36;100.00
6433;BME280;3249;42.690;23.260;2022-11-09T07:15:02;95061.22;;;10.28;100.00
6433;BME280;3249;42.690;23.260;2022-11-09T07:17:32;95047.34;;;10.16;100.00
6433;BME280;3249;42.690;23.260;2022-11-09T07:19:57;95057.47;;;10.50;100.00
6433;BME280;3249;42.690;23.260;2022-11-09T07:22:23;95059.47;;;10.61;100.00
6433;BME280;3249;42.690;23.260;2022-11-09T07:24:49;95060.28;;;10.87;100.00
6433;BME280;3249;42.690;23.260;2022-11-09T07:27:14;95058.13;;;10.91;100.00
6433;BME280;3249;42.690;23.260;2022-11-09T07:29:40;95049.97;;;11.00;100.00
6433;BME280;3249;42.690;23.260;2022-11-09T07:32:05;95055.88;;;11.20;100.00
6433;BME280;3249;42.690;23.260;2022-11-09T07:34:31;95061.81;;;11.47;100.00
6433;BME280;3249;42.690;23.260;2022-11-09T07:36:56;95043.94;;;11.52;100.00
6433;BME280;3249;42.690;23.260;2022-11-09T07:39:22;95057.19;;;11.81;100.00
6433;BME280;3249;42.690;23.260;2022-11-09T07:41:47;95058.47;;;12.03;100.00
6433;BME280;3249;42.690;23.260;2022-11-09T07:44:13;95070.44;;;11.85;100.00
6433;BME280;3249;42.690;23.260;2022-11-09T07:46:43;95051.41;;;11.79;100.00
6433;BME280;3249;42.690;23.260;2022-11-09T07:49:08;95059.16;;;12.23;100.00
6433;BME280;3249;42.690;23.260;2022-11-09T07:51:34;95057.13;;;12.32;100.00
6433;BME280;3249;42.690;23.260;2022-11-09T07:53:59;95060.53;;;12.57;100.00
6433;BME280;3249;42.690;23.260;2022-11-09T07:56:25;95049.03;;;12.53;100.00
6433;BME280;3249;42.690;23.260;2022-11-09T07:58:50;95066.34;;;12.83;100.00
6433;BME280;3249;42.690;23.260;2022-11-09T08:01:16;95065.53;;;12.83;100.00
6433;BME280;3249;42.690;23.260;2022-11-09T08:03:41;95065.75;;;12.50;100.00
6433;BME280;3249;42.690;23.260;2022-11-09T08:06:06;95070.75;;;12.76;100.00
6433;BME280;3249;42.690;23.260;2022-11-09T08:08:32;95072.91;;;12.79;100.00
6433;BME280;3249;42.690;23.260;2022-11-09T08:10:57;95061.19;;;12.77;100.00
6433;BME280;3249;42.690;23.260;2022-11-09T08:13:23;95047.66;;;12.81;100.00
6433;BME280;3249;42.690;23.260;2022-11-09T08:15:48;95068.88;;;13.14;100.00
6433;BME280;3249;42.690;23.260;2022-11-09T08:18:18;95077.34;;;12.97;100.00
6433;BME280;3249;42.690;23.260;2022-11-09T08:20:44;95068.22;;;12.94;100.00
6433;BME280;3249;42.690;23.260;2022-11-09T08:23:11;95069.41;;;13.23;100.00
6433;BME280;3249;42.690;23.260;2022-11-09T08:25:37;95061.59;;;13.05;100.00
6433;BME280;3249;42.690;23.260;2022-11-09T08:28:02;95050.09;;;13.25;100.00
6433;BME280;3249;42.690;23.260;2022-11-09T08:30:28;95067.63;;;13.23;100.00
6433;BME280;3249;42.690;23.260;2022-11-09T08:32:54;95078.44;;;13.14;100.00
6433;BME280;3249;42.690;23.260;2022-11-09T08:35:22;95069.34;;;12.80;100.00
6433;BME280;3249;42.690;23.260;2022-11-09T08:37:49;95049.09;;;12.77;100.00
6433;BME280;3249;42.690;23.260;2022-11-09T08:40:18;95067.47;;;12.63;100.00
6433;BME280;3249;42.690;23.260;2022-11-09T08:42:44;95050.66;;;12.54;100.00
6433;BME280;3249;42.690;23.260;2022-11-09T08:45:10;95067.09;;;12.59;100.00
6433;BME280;3249;42.690;23.260;2022-11-09T08:47:36;95073.84;;;12.91;100.00
6433;BME280;3249;42.690;23.260;2022-11-09T08:50:03;95069.13;;;12.82;100.00
6433;BME280;3249;42.690;23.260;2022-11-09T08:52:29;95074.75;;;12.97;100.00
6433;BME280;3249;42.690;23.260;2022-11-09T08:54:55;95071.91;;;13.11;100.00
6433;BME280;3249;42.690;23.260;2022-11-09T08:57:21;95076.28;;;13.35;100.00
6433;BME280;3249;42.690;23.260;2022-11-09T08:59:46;95076.97;;;13.24;100.00
6433;BME280;3249;42.690;23.260;2022-11-09T09:02:14;95058.44;;;13.27;100.00
6433;BME280;3249;42.690;23.260;2022-11-09T09:04:40;95078.94;;;13.47;100.00
6433;BME280;3249;42.690;23.260;2022-11-09T09:07:06;95085.13;;;13.64;100.00
6433;BME280;3249;42.690;23.260;2022-11-09T09:09:32;95085.19;;;13.57;100.00
6433;BME280;3249;42.690;23.260;2022-11-09T09:11:59;95089.16;;;13.96;100.00
6433;BME280;3249;42.690;23.260;2022-11-09T09:14:24;95084.44;;;13.93;100.00
6433;BME280;3249;42.690;23.260;2022-11-09T09:16:50;95082.06;;;13.92;100.00
6433;BME280;3249;42.690;23.260;2022-11-09T09:19:15;95078.75;;;13.84;100.00
6433;BME280;3249;42.690;23.260;2022-11-09T09:21:41;95065.59;;;13.86;100.00
6433;BME280;3249;42.690;23.260;2022-11-09T09:24:07;95074.50;;;13.90;100.00
6433;BME280;3249;42.690;23.260;2022-11-09T09:26:32;95078.44;;;14.11;100.00
6433;BME280;3249;42.690;23.260;2022-11-09T09:28:58;95075.50;;;14.25;100.00
6433;BME280;3249;42.690;23.260;2022-11-09T09:31:23;95068.91;;;14.41;100.00
6433;BME280;3249;42.690;23.260;2022-11-09T09:33:49;95063.66;;;14.47;100.00
6433;BME280;3249;42.690;23.260;2022-11-09T09:36:19;95070.56;;;14.53;100.00
6433;BME280;3249;42.690;23.260;2022-11-09T09:38:45;95073.69;;;14.55;100.00
6433;BME280;3249;42.690;23.260;2022-11-09T09:43:48;95031.53;;;14.48;100.00
6433;BME280;3249;42.690;23.260;2022-11-09T09:46:18;95066.88;;;14.72;100.00
6433;BME280;3249;42.690;23.260;2022-11-09T09:48:50;95045.25;;;14.67;100.00
6433;BME280;3249;42.690;23.260;2022-11-09T09:51:44;95055.72;;;14.72;100.00
6433;BME280;3249;42.690;23.260;2022-11-09T09:54:15;95058.66;;;14.75;100.00
6433;BME280;3249;42.690;23.260;2022-11-09T09:56:44;95054.50;;;14.74;100.00
6433;BME280;3249;42.690;23.260;2022-11-09T09:59:18;95047.44;;;14.52;100.00
6433;BME280;3249;42.690;23.260;2022-11-09T10:01:46;95045.63;;;14.93;100.00
6433;BME280;3249;42.690;23.260;2022-11-09T10:04:21;95048.97;;;14.82;100.00
6433;BME280;3249;42.690;23.260;2022-11-09T10:15:15;95036.72;;;15.24;100.00
6433;BME280;3249;42.690;23.260;2022-11-09T10:17:58;95036.88;;;15.40;100.00
6433;BME280;3249;42.690;23.260;2022-11-09T10:25:43;95009.22;;;15.11;100.00
6433;BME280;3249;42.690;23.260;2022-11-09T10:28:13;95020.50;;;15.17;100.00
6433;BME280;3249;42.690;23.260;2022-11-09T10:30:39;95026.59;;;15.57;100.00
6433;BME280;3249;42.690;23.260;2022-11-09T10:38:29;94998.38;;;15.60;100.00
6433;BME280;3249;42.690;23.260;2022-11-09T10:41:04;95020.91;;;15.83;100.00
6433;BME280;3249;42.690;23.260;2022-11-09T10:43:35;95019.34;;;15.70;100.00
6433;BME280;3249;42.690;23.260;2022-11-09T10:46:05;95003.53;;;15.72;100.00
6433;BME280;3249;42.690;23.260;2022-11-09T10:48:37;95014.72;;;15.61;100.00
6433;BME280;3249;42.690;23.260;2022-11-09T10:51:03;95006.19;;;15.37;100.00
6433;BME280;3249;42.690;23.260;2022-11-09T10:53:31;95002.09;;;15.18;100.00
6433;BME280;3249;42.690;23.260;2022-11-09T10:58:39;94998.03;;;15.68;100.00
6433;BME280;3249;42.690;23.260;2022-11-09T11:01:21;94980.97;;;15.61;100.00
6433;BME280;3249;42.690;23.260;2022-11-09T11:03:52;94996.47;;;15.21;100.00
6433;BME280;3249;42.690;23.260;2022-11-09T11:06:25;94994.09;;;15.31;100.00
6433;BME280;3249;42.690;23.260;2022-11-09T11:13:49;94980.22;;;14.91;100.00
6433;BME280;3249;42.690;23.260;2022-11-09T11:16:31;94988.66;;;14.75;100.00
6433;BME280;3249;42.690;23.260;2022-11-09T11:18:57;94975.28;;;14.90;100.00
6433;BME280;3249;42.690;23.260;2022-11-09T11:21:24;94972.69;;;15.13;100.00
6433;BME280;3249;42.690;23.260;2022-11-09T11:24:16;94981.81;;;15.27;100.00
6433;BME280;3249;42.690;23.260;2022-11-09T11:32:18;94958.59;;;14.97;100.00
6433;BME280;3249;42.690;23.260;2022-11-09T11:34:45;94965.81;;;14.95;100.00
6433;BME280;3249;42.690;23.260;2022-11-09T11:43:12;94953.84;;;14.71;100.00
6433;BME280;3249;42.690;23.260;2022-11-09T11:45:41;94956.22;;;15.07;100.00
6433;BME280;3249;42.690;23.260;2022-11-09T12:09:59;94927.91;;;15.40;100.00
6433;BME280;3249;42.690;23.260;2022-11-09T12:12:55;94954.13;;;15.67;100.00
6433;BME280;3249;42.690;23.260;2022-11-09T12:15:29;94953.06;;;15.79;100.00
6433;BME280;3249;42.690;23.260;2022-11-09T12:23:44;94935.81;;;15.73;100.00
6433;BME280;3249;42.690;23.260;2022-11-09T12:34:34;94919.03;;;15.64;100.00
6433;BME280;3249;42.690;23.260;2022-11-09T12:37:13;94925.00;;;15.65;100.00
6433;BME280;3249;42.690;23.260;2022-11-09T12:39:49;94931.69;;;15.61;100.00
6433;BME280;3249;42.690;23.260;2022-11-09T12:45:04;94916.69;;;15.79;100.00
6433;BME280;3249;42.690;23.260;2022-11-09T12:47:43;94917.59;;;15.85;100.00
6433;BME280;3249;42.690;23.260;2022-11-09T12:50:16;94920.16;;;15.96;99.30
6433;BME280;3249;42.690;23.260;2022-11-09T12:52:43;94920.03;;;15.91;99.66
6433;BME280;3249;42.690;23.260;2022-11-09T12:58:03;94918.31;;;15.97;99.97
6433;BME280;3249;42.690;23.260;2022-11-09T13:03:12;94922.63;;;15.91;100.00
6433;BME280;3249;42.690;23.260;2022-11-09T13:05:40;94905.41;;;15.85;100.00
6433;BME280;3249;42.690;23.260;2022-11-09T13:08:15;94915.78;;;15.57;100.00
6433;BME280;3249;42.690;23.260;2022-11-09T13:10:41;94896.00;;;15.28;100.00
6433;BME280;3249;42.690;23.260;2022-11-09T13:15:39;94915.81;;;15.34;100.00
6433;BME280;3249;42.690;23.260;2022-11-09T13:18:45;94910.63;;;15.34;100.00
6433;BME280;3249;42.690;23.260;2022-11-09T13:23:46;94911.78;;;15.66;100.00
6433;BME280;3249;42.690;23.260;2022-11-09T13:34:53;94915.78;;;15.57;100.00
6433;BME280;3249;42.690;23.260;2022-11-09T13:50:55;94909.03;;;16.01;98.14
6433;BME280;3249;42.690;23.260;2022-11-09T13:56:39;94876.19;;;15.78;99.27
6433;BME280;3249;42.690;23.260;2022-11-09T14:01:59;94911.28;;;15.53;100.00
6433;BME280;3249;42.690;23.260;2022-11-09T14:20:53;94886.63;;;15.67;100.00
6433;BME280;3249;42.690;23.260;2022-11-09T14:23:22;94910.13;;;15.88;100.00
6433;BME280;3249;42.690;23.260;2022-11-09T14:25:48;94898.78;;;15.78;100.00
6433;BME280;3249;42.690;23.260;2022-11-09T14:28:30;94912.97;;;15.47;100.00
6433;BME280;3249;42.690;23.260;2022-11-09T14:30:57;94914.91;;;15.52;100.00
6433;BME280;3249;42.690;23.260;2022-11-09T14:33:25;94909.38;;;15.48;100.00
6433;BME280;3249;42.690;23.260;2022-11-09T14:35:53;94910.75;;;15.28;100.00
6433;BME280;3249;42.690;23.260;2022-11-09T14:38:32;94913.34;;;15.39;100.00
6433;BME280;3249;42.690;23.260;2022-11-09T14:40:59;94913.13;;;15.41;100.00
6433;BME280;3249;42.690;23.260;2022-11-09T14:43:42;94911.22;;;15.36;100.00
6433;BME280;3249;42.690;23.260;2022-11-09T14:46:17;94912.22;;;15.35;100.00
6433;BME280;3249;42.690;23.260;2022-11-09T14:48:58;94920.22;;;15.45;100.00
6433;BME280;3249;42.690;23.260;2022-11-09T14:51:30;94908.16;;;15.28;100.00
6433;BME280;3249;42.690;23.260;2022-11-09T14:53:58;94919.56;;;15.15;100.00
6433;BME280;3249;42.690;23.260;2022-11-09T14:56:24;94902.78;;;15.06;100.00
6433;BME280;3249;42.690;23.260;2022-11-09T14:58:51;94918.91;;;15.08;100.00
6433;BME280;3249;42.690;23.260;2022-11-09T15:03:43;94916.56;;;15.07;100.00
6433;BME280;3249;42.690;23.260;2022-11-09T15:06:14;94928.75;;;14.95;100.00
6433;BME280;3249;42.690;23.260;2022-11-09T15:08:57;94924.00;;;14.69;100.00
6433;BME280;3249;42.690;23.260;2022-11-09T15:11:35;94910.34;;;14.50;100.00
6433;BME280;3249;42.690;23.260;2022-11-09T15:16:42;94920.56;;;14.34;100.00
6433;BME280;3249;42.690;23.260;2022-11-09T15:19:28;94919.00;;;14.33;100.00
6433;BME280;3249;42.690;23.260;2022-11-09T15:21:54;94915.28;;;14.29;100.00
6433;BME280;3249;42.690;23.260;2022-11-09T15:24:21;94933.88;;;14.37;100.00
6433;BME280;3249;42.690;23.260;2022-11-09T15:26:49;94925.66;;;13.99;100.00
6433;BME280;3249;42.690;23.260;2022-11-09T15:29:33;94925.41;;;13.59;100.00